createdAt,value
2019-04-16T00:01:29.213Z,30.93
2019-04-16T00:04:07.975Z,28.10
2019-04-16T00:06:53.442Z,27.27
2019-04-16T00:09:29.351Z,29.33
2019-04-16T00:11:59.639Z,28.60
2019-04-16T00:14:32.857Z,30.30
2019-04-16T00:17:01.492Z,28.77
2019-04-16T00:19:30.157Z,29.50
2019-04-16T00:22:12.482Z,29.67
2019-04-16T00:24:43.131Z,30.50
2019-04-16T00:27:11.787Z,27.70
2019-04-16T00:29:40.427Z,31.77
2019-04-16T00:32:10.771Z,32.47
2019-04-16T00:34:39.408Z,31.43
2019-04-16T00:37:08.037Z,27.87
2019-04-16T00:39:36.683Z,30.10
2019-04-16T00:42:06.912Z,29.30
2019-04-16T00:44:35.660Z,29.27
2019-04-16T00:47:10.334Z,32.27
2019-04-16T00:49:40.988Z,29.63
2019-04-16T00:52:09.577Z,32.97
2019-04-16T00:54:42.397Z,28.97
2019-04-16T00:57:10.355Z,31.20
2019-04-16T00:59:46.358Z,29.60
2019-04-16T01:02:15.592Z,35.27
2019-04-16T01:04:44.740Z,29.03
2019-04-16T01:07:13.473Z,27.73
2019-04-16T01:09:42.603Z,34.50
2019-04-16T01:12:11.413Z,30.23
2019-04-16T01:14:42.101Z,31.80
2019-04-16T01:17:12.621Z,27.05
2019-04-16T01:19:42.012Z,28.77
2019-04-16T01:22:15.814Z,29.77
2019-04-16T01:24:45.343Z,32.13
2019-04-16T01:27:14.138Z,27.93
2019-04-16T01:29:42.739Z,33.30
2019-04-16T01:32:15.985Z,28.77
2019-04-16T01:35:02.561Z,26.93
2019-04-16T01:37:49.156Z,30.67
2019-04-16T01:40:22.137Z,28.27
2019-04-16T01:42:54.403Z,28.33
2019-04-16T01:45:21.165Z,30.00
2019-04-16T01:47:49.799Z,29.17
2019-04-16T01:50:18.593Z,30.80
2019-04-16T01:52:49.464Z,29.57
2019-04-16T01:55:17.505Z,29.60
2019-04-16T01:57:46.343Z,28.80
2019-04-16T02:00:15.227Z,29.80
2019-04-16T02:02:46.362Z,29.10
2019-04-16T02:05:14.207Z,28.73
2019-04-16T02:07:42.840Z,30.67
2019-04-16T02:10:11.569Z,28.07
2019-04-16T02:12:43.676Z,25.23
2019-04-16T02:15:13.563Z,32.73
2019-04-16T02:17:42.359Z,27.50
2019-04-16T02:20:11.416Z,28.97
2019-04-16T02:22:45.074Z,30.03
2019-04-16T02:25:19.202Z,30.40
2019-04-16T02:27:46.716Z,29.70
2019-04-16T02:30:19.228Z,28.57
2019-04-16T02:32:47.626Z,27.07
2019-04-16T02:35:16.316Z,30.60
2019-04-16T02:37:44.940Z,28.50
2019-04-16T02:40:18.489Z,30.97
2019-04-16T02:42:44.023Z,31.00
2019-04-16T02:45:22.454Z,27.00
2019-04-16T02:47:48.671Z,28.33
2019-04-16T02:50:18.974Z,27.30
2019-04-16T02:52:51.024Z,27.93
2019-04-16T02:55:21.233Z,32.50
2019-04-16T02:57:59.537Z,26.80
2019-04-16T03:00:29.418Z,32.07
2019-04-16T03:03:03.868Z,27.83
2019-04-16T03:05:34.395Z,28.07
2019-04-16T03:08:04.813Z,27.07
2019-04-16T03:10:35.553Z,30.23
2019-04-16T03:13:04.226Z,28.13
2019-04-16T03:15:34.611Z,28.67
2019-04-16T03:18:03.493Z,24.00
2019-04-16T03:20:44.160Z,24.00
2019-04-16T03:23:13.006Z,25.93
2019-04-16T03:25:47.298Z,24.63
2019-04-16T03:28:15.946Z,26.17
2019-04-16T03:30:44.610Z,27.30
2019-04-16T03:33:15.139Z,27.33
2019-04-16T03:35:44.430Z,26.07
2019-04-16T03:38:13.054Z,27.07
2019-04-16T03:40:41.672Z,27.20
2019-04-16T03:43:10.315Z,26.13
2019-04-16T03:45:53.964Z,25.60
2019-04-16T03:48:24.613Z,30.60
2019-04-16T03:51:00.497Z,25.97
2019-04-16T03:53:33.568Z,28.43
2019-04-16T03:56:11.232Z,24.17
2019-04-16T03:58:39.861Z,25.73
2019-04-16T04:01:08.476Z,24.80
2019-04-16T04:03:44.342Z,28.33
2019-04-16T04:06:15.683Z,27.30
2019-04-16T04:09:18.954Z,29.35
2019-04-16T04:11:48.777Z,29.43
2019-04-16T04:14:22.148Z,24.27
2019-04-16T04:16:55.997Z,27.47
2019-04-16T04:19:24.575Z,26.83
2019-04-16T04:22:02.469Z,24.80
2019-04-16T04:24:37.743Z,28.33
2019-04-16T04:27:14.416Z,26.90
2019-04-16T04:29:48.439Z,27.13
2019-04-16T04:32:17.920Z,29.10
2019-04-16T04:34:48.752Z,25.57
2019-04-16T04:37:16.763Z,25.03
2019-04-16T04:39:45.361Z,24.37
2019-04-16T04:42:13.971Z,27.27
2019-04-16T04:44:42.537Z,25.43
2019-04-16T04:47:11.107Z,24.47
2019-04-16T04:49:39.736Z,29.73
2019-04-16T04:52:08.314Z,25.20
2019-04-16T04:54:44.127Z,29.47
2019-04-16T04:57:15.198Z,30.00
2019-04-16T04:59:43.701Z,28.12
2019-04-16T05:02:14.583Z,26.87
2019-04-16T05:04:49.637Z,26.15
2019-04-16T05:07:19.616Z,24.33
2019-04-16T05:09:48.248Z,25.23
2019-04-16T05:12:20.807Z,27.23
2019-04-16T05:14:57.480Z,23.35
2019-04-16T05:17:25.647Z,21.83
2019-04-16T05:19:54.264Z,23.77
2019-04-16T05:22:28.595Z,26.63
2019-04-16T05:25:00.877Z,25.57
2019-04-16T05:27:29.376Z,24.27
2019-04-16T05:30:03.913Z,23.57
2019-04-16T05:32:34.023Z,25.43
2019-04-16T05:35:25.030Z,25.40
2019-04-16T05:38:00.623Z,20.92
2019-04-16T05:40:35.477Z,27.02
2019-04-16T05:43:10.020Z,22.17
2019-04-16T05:45:41.315Z,23.07
2019-04-16T05:48:21.880Z,21.42
2019-04-16T05:50:50.992Z,20.95
2019-04-16T05:53:28.129Z,23.02
2019-04-16T05:55:58.418Z,23.25
2019-04-16T05:58:27.753Z,27.00
2019-04-16T06:01:01.354Z,20.05
2019-04-16T06:03:29.956Z,22.35
2019-04-16T06:05:59.204Z,25.75
2019-04-16T06:08:28.614Z,23.15
2019-04-16T06:10:57.673Z,19.52
2019-04-16T06:13:41.325Z,20.57
2019-04-16T06:16:17.885Z,24.47
2019-04-16T06:18:54.331Z,21.90
2019-04-16T06:21:36.369Z,23.73
2019-04-16T06:24:07.325Z,22.60
2019-04-16T06:26:53.995Z,21.52
2019-04-16T06:29:25.441Z,22.65
2019-04-16T06:32:11.890Z,23.67
2019-04-16T06:34:42.507Z,20.20
2019-04-16T06:37:26.563Z,23.38
2019-04-16T06:40:00.897Z,26.03
2019-04-16T06:42:32.235Z,23.45
2019-04-16T06:45:04.839Z,24.05
2019-04-16T06:47:34.306Z,21.23
2019-04-16T06:50:07.367Z,24.27
2019-04-16T06:52:56.931Z,24.55
2019-04-16T06:55:43.337Z,20.02
2019-04-16T06:58:22.653Z,22.70
2019-04-16T07:01:07.970Z,21.68
2019-04-16T07:03:44.062Z,29.37
2019-04-16T07:06:35.999Z,23.40
2019-04-16T07:09:05.583Z,23.55
2019-04-16T07:11:35.875Z,21.55
2019-04-16T07:14:05.432Z,22.45
2019-04-16T07:16:40.324Z,22.22
2019-04-16T07:19:11.216Z,23.45
2019-04-16T07:21:39.331Z,25.25
2019-04-16T07:24:08.062Z,20.02
2019-04-16T07:26:39.507Z,23.30
2019-04-16T07:29:20.633Z,20.92
2019-04-16T07:31:54.592Z,22.15
2019-04-16T07:34:41.335Z,27.60
2019-04-16T07:37:11.622Z,20.55
2019-04-16T07:39:56.860Z,25.12
2019-04-16T07:42:27.131Z,21.93
2019-04-16T07:45:13.328Z,21.42
2019-04-16T07:47:55.900Z,23.40
2019-04-16T07:50:26.156Z,24.80
2019-04-16T07:52:56.533Z,22.75
2019-04-16T07:55:38.655Z,22.40
2019-04-16T07:58:07.347Z,27.05
2019-04-16T08:00:40.307Z,20.77
2019-04-16T08:03:06.261Z,23.65
2019-04-16T08:05:41.222Z,23.47
2019-04-16T08:08:08.414Z,22.50
2019-04-16T08:10:37.138Z,22.02
2019-04-16T08:13:07.372Z,24.57
2019-04-16T08:15:36.235Z,27.67
2019-04-16T08:18:04.975Z,26.02
2019-04-16T08:20:33.642Z,24.65
2019-04-16T08:23:25.971Z,23.85
2019-04-16T08:26:02.590Z,26.23
2019-04-16T08:28:25.691Z,26.02
2019-04-16T08:30:54.374Z,23.52
2019-04-16T08:33:28.343Z,23.95
2019-04-16T08:35:55.877Z,23.40
2019-04-16T08:38:26.049Z,24.30
2019-04-16T08:40:54.863Z,24.80
2019-04-16T08:43:23.522Z,23.50
2019-04-16T08:45:52.200Z,25.68
2019-04-16T08:48:26.671Z,24.85
2019-04-16T08:50:57.912Z,22.80
2019-04-16T08:53:25.592Z,22.30
2019-04-16T08:55:54.597Z,24.12
2019-04-16T08:58:23.191Z,26.55
2019-04-16T09:00:51.888Z,24.52
2019-04-16T09:03:21.433Z,22.35
2019-04-16T09:05:50.056Z,22.98
2019-04-16T09:08:32.914Z,22.30
2019-04-16T09:11:04.894Z,23.52
2019-04-16T09:13:44.443Z,25.65
2019-04-16T09:16:14.319Z,24.47
2019-04-16T09:19:02.880Z,22.85
2019-04-16T09:21:31.471Z,24.07
2019-04-16T09:24:24.067Z,27.87
2019-04-16T09:27:06.243Z,24.85
2019-04-16T09:29:52.934Z,22.98
2019-04-16T09:32:28.247Z,23.12
2019-04-16T09:35:09.689Z,22.15
2019-04-16T09:37:54.264Z,24.10
2019-04-16T09:40:36.724Z,24.57
2019-04-16T09:43:16.621Z,25.10
2019-04-16T09:45:39.234Z,25.48
2019-04-16T09:48:08.318Z,26.30
2019-04-16T09:50:43.115Z,24.25
2019-04-16T09:53:07.207Z,28.98
2019-04-16T09:55:35.897Z,25.00
2019-04-16T09:58:07.070Z,21.62
2019-04-16T10:00:43.723Z,23.00
2019-04-16T10:03:32.183Z,27.48
2019-04-16T10:06:06.394Z,26.75
2019-04-16T10:08:35.037Z,27.87
2019-04-16T10:11:05.986Z,28.30
2019-04-16T10:13:36.075Z,25.35
2019-04-16T10:16:04.399Z,25.62
2019-04-16T10:18:35.141Z,28.32
2019-04-16T10:21:03.448Z,26.50
2019-04-16T10:23:48.681Z,28.73
2019-04-16T10:26:17.992Z,24.82
2019-04-16T10:28:48.062Z,27.05
2019-04-16T10:31:23.925Z,26.27
2019-04-16T10:33:52.716Z,26.10
2019-04-16T10:36:21.406Z,23.62
2019-04-16T10:39:04.086Z,24.77
2019-04-16T10:41:46.640Z,29.42
2019-04-16T10:44:19.376Z,26.95
2019-04-16T10:47:07.004Z,25.57
2019-04-16T10:49:37.364Z,24.20
2019-04-16T10:52:07.802Z,24.52
2019-04-16T10:54:46.376Z,25.77
2019-04-16T10:57:28.556Z,24.50
2019-04-16T11:00:04.519Z,24.80
2019-04-16T11:02:46.829Z,24.37
2019-04-16T11:05:29.283Z,23.32
2019-04-16T11:07:59.548Z,24.37
2019-04-16T11:10:28.247Z,25.95
2019-04-16T11:12:56.799Z,25.00
2019-04-16T11:15:26.852Z,25.52
2019-04-16T11:17:55.475Z,26.75
2019-04-16T11:20:24.486Z,25.32
2019-04-16T11:22:53.020Z,22.93
2019-04-16T11:25:21.633Z,24.00
2019-04-16T11:27:50.372Z,22.98
2019-04-16T11:30:23.611Z,22.17
2019-04-16T11:32:53.450Z,25.62
2019-04-16T11:35:23.168Z,23.07
2019-04-16T11:37:51.850Z,23.92
2019-04-16T11:40:20.456Z,22.95
2019-04-16T11:42:49.004Z,26.90
2019-04-16T11:45:18.382Z,25.10
2019-04-16T11:47:48.292Z,24.92
2019-04-16T11:50:17.144Z,23.77
2019-04-16T11:52:48.372Z,22.62
2019-04-16T11:55:16.973Z,22.02
2019-04-16T11:57:45.546Z,22.40
2019-04-16T12:00:28.657Z,26.00
2019-04-16T12:03:07.663Z,20.80
2019-04-16T12:05:44.018Z,23.07
2019-04-16T12:08:17.055Z,19.95
2019-04-16T12:10:59.481Z,19.35
2019-04-16T12:13:38.789Z,22.25
2019-04-16T12:16:11.849Z,22.10
2019-04-16T12:19:00.321Z,19.23
2019-04-16T12:21:48.789Z,17.20
2019-04-16T12:24:40.094Z,18.10
2019-04-16T12:27:26.668Z,18.35
2019-04-16T12:30:02.736Z,16.48
2019-04-16T12:32:33.003Z,19.70
2019-04-16T12:35:09.232Z,17.62
2019-04-16T12:37:56.684Z,16.57
2019-04-16T12:40:42.336Z,18.57
2019-04-16T12:43:16.013Z,16.67
2019-04-16T12:45:44.919Z,18.23
2019-04-16T12:48:17.970Z,15.27
2019-04-16T12:50:53.788Z,16.35
2019-04-16T12:53:26.723Z,20.62
2019-04-16T12:56:08.242Z,21.55
2019-04-16T12:58:43.598Z,14.58
2019-04-16T13:01:22.473Z,16.87
2019-04-16T13:03:55.453Z,17.48
2019-04-16T13:06:38.007Z,15.65
2019-04-16T13:09:14.388Z,21.42
2019-04-16T13:11:44.628Z,18.92
2019-04-16T13:14:20.820Z,13.95
2019-04-16T13:16:51.125Z,13.85
2019-04-16T13:19:37.911Z,14.43
2019-04-16T13:22:19.862Z,13.43
2019-04-16T13:24:50.143Z,15.30
2019-04-16T13:27:22.210Z,13.13
2019-04-16T13:30:01.311Z,14.07
2019-04-16T13:32:27.951Z,11.95
2019-04-16T13:34:58.293Z,15.28
2019-04-16T13:37:30.338Z,19.63
2019-04-16T13:40:00.490Z,13.13
2019-04-16T13:42:29.212Z,18.35
2019-04-16T13:45:26.987Z,14.60
2019-04-16T13:47:56.172Z,19.75
2019-04-16T13:50:29.082Z,16.50
2019-04-16T13:53:15.629Z,17.42
2019-04-16T13:56:02.200Z,18.73
2019-04-16T13:58:35.224Z,15.38
2019-04-16T14:01:08.898Z,16.57
2019-04-16T14:03:36.436Z,17.17
2019-04-16T14:06:11.270Z,16.52
2019-04-16T14:08:40.057Z,14.93
2019-04-16T14:11:08.699Z,16.62
2019-04-16T14:13:37.315Z,16.40
2019-04-16T14:16:11.689Z,16.27
2019-04-16T14:18:37.928Z,16.73
2019-04-16T14:21:06.703Z,13.22
2019-04-16T14:23:35.370Z,14.50
2019-04-16T14:26:04.133Z,13.60
2019-04-16T14:28:34.572Z,16.85
2019-04-16T14:31:09.398Z,18.40
2019-04-16T14:33:45.669Z,19.67
2019-04-16T14:36:14.536Z,17.55
2019-04-16T14:38:51.307Z,14.53
2019-04-16T14:41:19.884Z,13.85
2019-04-16T14:43:50.107Z,12.82
2019-04-16T14:46:19.221Z,14.03
2019-04-16T14:48:47.826Z,11.73
2019-04-16T14:51:16.425Z,11.43
2019-04-16T14:53:46.753Z,16.35
2019-04-16T14:56:17.089Z,14.30
2019-04-16T14:58:56.457Z,15.75
2019-04-16T15:01:26.729Z,15.35
2019-04-16T15:04:13.058Z,14.18
2019-04-16T15:06:52.766Z,17.15
2019-04-16T15:09:23.675Z,19.97
2019-04-16T15:12:13.321Z,15.98
2019-04-16T15:14:43.544Z,18.62
2019-04-16T15:17:16.296Z,20.08
2019-04-16T15:19:46.557Z,15.48
2019-04-16T15:22:25.876Z,15.48
2019-04-16T15:24:56.128Z,14.47
2019-04-16T15:27:32.619Z,16.15
2019-04-16T15:30:13.676Z,16.93
2019-04-16T15:32:51.309Z,15.83
2019-04-16T15:35:24.569Z,16.57
2019-04-16T15:37:57.883Z,16.73
2019-04-16T15:40:26.909Z,15.40
2019-04-16T15:43:00.085Z,15.30
2019-04-16T15:45:59.027Z,16.70
2019-04-16T15:48:52.857Z,17.23
2019-04-16T15:51:29.473Z,14.47
2019-04-16T15:54:00.018Z,14.53
2019-04-16T15:56:30.356Z,20.30
2019-04-16T15:59:00.877Z,15.40
2019-04-16T16:01:31.633Z,14.40
2019-04-16T16:04:10.661Z,16.73
2019-04-16T16:06:44.401Z,13.98
2019-04-16T16:09:23.864Z,11.68
2019-04-16T16:12:09.794Z,14.30
2019-04-16T16:14:38.754Z,13.83
2019-04-16T16:17:06.828Z,14.60
2019-04-16T16:19:35.433Z,17.17
2019-04-16T16:22:11.875Z,12.25
2019-04-16T16:24:42.350Z,11.18
2019-04-16T16:27:11.010Z,13.08
2019-04-16T16:29:42.235Z,12.95
2019-04-16T16:32:10.853Z,13.70
2019-04-16T16:34:39.556Z,16.40
2019-04-16T16:37:08.169Z,16.25
2019-04-16T16:39:36.772Z,14.75
2019-04-16T16:42:05.514Z,15.32
2019-04-16T16:44:34.096Z,13.95
2019-04-16T16:47:07.124Z,11.68
2019-04-16T16:49:46.651Z,12.20
2019-04-16T16:52:26.142Z,13.08
2019-04-16T16:54:56.376Z,10.53
2019-04-16T16:57:26.722Z,11.75
2019-04-16T17:00:11.983Z,10.98
2019-04-16T17:02:45.066Z,11.50
2019-04-16T17:05:18.045Z,12.73
2019-04-16T17:07:50.642Z,12.93
2019-04-16T17:10:19.160Z,12.53
2019-04-16T17:12:47.941Z,17.15
2019-04-16T17:15:19.447Z,11.63
2019-04-16T17:20:19.032Z,11.12
2019-04-16T17:23:02.704Z,10.30
2019-04-16T17:25:37.566Z,10.95
2019-04-16T17:28:06.277Z,10.82
2019-04-16T17:30:44.213Z,12.20
2019-04-16T17:33:18.799Z,8.38
2019-04-16T17:35:47.456Z,9.85
2019-04-16T17:38:24.492Z,8.95
2019-04-16T17:41:00.425Z,13.13
2019-04-16T17:43:30.792Z,8.90
2019-04-16T17:46:07.025Z,9.25
2019-04-16T17:48:43.181Z,9.20
2019-04-16T17:51:30.480Z,10.28
2019-04-16T17:54:03.595Z,10.15
2019-04-16T17:56:46.204Z,10.85
2019-04-16T17:59:22.486Z,11.03
2019-04-16T18:02:04.944Z,8.90
2019-04-16T18:04:38.460Z,9.83
2019-04-16T18:07:20.549Z,9.65
2019-04-16T18:09:50.947Z,10.20
2019-04-16T18:12:27.088Z,8.10
2019-04-16T18:15:10.471Z,8.75
2019-04-16T18:17:55.364Z,7.47
2019-04-16T18:20:31.553Z,7.87
2019-04-16T18:23:27.567Z,7.47
2019-04-16T18:26:11.601Z,8.05
2019-04-16T18:28:45.450Z,8.40
2019-04-16T18:31:24.229Z,8.73
2019-04-16T18:33:55.347Z,8.25
2019-04-16T18:36:28.968Z,5.95
2019-04-16T18:39:15.509Z,6.58
2019-04-16T18:41:52.201Z,7.00
2019-04-16T18:44:54.931Z,7.28
2019-04-16T18:47:27.689Z,20.70
2019-04-16T18:50:10.184Z,8.20
2019-04-16T18:52:38.820Z,5.95
2019-04-16T18:55:08.848Z,5.25
2019-04-16T18:57:43.778Z,5.55
2019-04-16T19:00:35.830Z,6.25
2019-04-16T19:03:07.300Z,5.35
2019-04-16T19:05:48.562Z,5.22
2019-04-16T19:08:24.433Z,5.42
2019-04-16T19:10:55.220Z,4.55
2019-04-16T19:13:30.296Z,7.00
2019-04-16T19:16:01.437Z,4.60
2019-04-16T19:18:49.114Z,6.95
2019-04-16T19:21:19.011Z,4.62
2019-04-16T19:24:00.550Z,8.15
2019-04-16T19:26:36.289Z,5.28
2019-04-16T19:29:05.999Z,5.25
2019-04-16T19:31:40.664Z,5.42
2019-04-16T19:34:21.543Z,6.55
2019-04-16T19:36:55.749Z,3.77
2019-04-16T19:39:23.159Z,5.45
2019-04-16T19:41:57.226Z,4.47
2019-04-16T19:44:24.401Z,4.35
2019-04-16T19:47:15.970Z,4.60
2019-04-16T19:49:50.371Z,4.35
2019-04-16T19:52:22.513Z,4.08
2019-04-16T19:54:51.342Z,4.37
2019-04-16T19:57:31.994Z,5.03
2019-04-16T20:00:00.579Z,4.55
2019-04-16T20:02:35.106Z,3.72
2019-04-16T20:05:03.952Z,5.33
2019-04-16T20:07:33.569Z,3.75
2019-04-16T20:10:02.703Z,3.87
2019-04-16T20:12:31.293Z,4.10
2019-04-16T20:14:59.932Z,4.22
2019-04-16T20:17:36.569Z,4.20
2019-04-16T20:20:06.763Z,4.80
2019-04-16T20:22:35.453Z,4.15
2019-04-16T20:25:07.679Z,4.53
2019-04-16T20:27:42.719Z,8.20
2019-04-16T20:30:13.094Z,5.70
2019-04-16T20:32:43.857Z,4.05
2019-04-16T20:35:17.742Z,4.45
2019-04-16T20:37:50.400Z,4.17
2019-04-16T20:40:19.439Z,3.55
2019-04-16T20:42:48.274Z,5.00
2019-04-16T20:45:17.027Z,3.67
2019-04-16T20:47:54.974Z,4.10
2019-04-16T20:50:23.581Z,5.25
2019-04-16T20:52:53.465Z,4.33
2019-04-16T20:55:27.988Z,4.28
2019-04-16T20:57:58.673Z,5.45
2019-04-16T21:00:36.552Z,4.67
2019-04-16T21:03:21.100Z,5.22
2019-04-16T21:05:36.686Z,5.67
2019-04-16T21:08:05.299Z,4.55
2019-04-16T21:10:35.772Z,5.47
2019-04-16T21:13:07.241Z,5.95
2019-04-16T21:18:03.835Z,4.37
2019-04-16T21:20:32.511Z,4.55
2019-04-16T21:23:03.478Z,6.85
2019-04-16T21:25:32.283Z,7.30
2019-04-16T21:28:15.293Z,4.72
2019-04-16T21:30:44.967Z,5.20
2019-04-16T21:33:20.530Z,4.80
2019-04-16T21:35:52.244Z,4.62
2019-04-16T21:38:38.690Z,6.53
2019-04-16T21:41:07.325Z,5.00
2019-04-16T21:43:39.706Z,4.92
2019-04-16T21:46:06.358Z,5.60
2019-04-16T21:48:35.059Z,5.37
2019-04-16T21:51:03.717Z,8.55
2019-04-16T21:53:32.344Z,5.10
2019-04-16T21:56:06.429Z,5.80
2019-04-16T21:58:31.452Z,5.08
2019-04-16T22:01:05.226Z,7.35
2019-04-16T22:03:35.602Z,5.95
2019-04-16T22:06:04.308Z,5.50
2019-04-16T22:08:33.032Z,6.67
2019-04-16T22:11:01.827Z,5.28
2019-04-16T22:13:30.548Z,7.55
2019-04-16T22:15:59.248Z,6.50
2019-04-16T22:18:33.616Z,6.25
2019-04-16T22:21:02.340Z,6.22
2019-04-16T22:23:31.027Z,7.17
2019-04-16T22:26:02.051Z,7.83
2019-04-16T22:28:29.935Z,6.75
2019-04-16T22:30:58.568Z,6.05
2019-04-16T22:33:27.193Z,5.80
2019-04-16T22:35:55.804Z,6.05
2019-04-16T22:38:25.647Z,5.75
2019-04-16T22:40:58.942Z,5.53
2019-04-16T22:43:45.283Z,6.53
2019-04-16T22:46:24.144Z,6.00
2019-04-16T22:48:56.798Z,5.70
2019-04-16T22:51:25.945Z,7.30
2019-04-16T22:53:54.672Z,6.87
2019-04-16T22:56:28.178Z,6.47
2019-04-16T22:58:55.271Z,7.25
2019-04-16T23:01:28.271Z,7.15
2019-04-16T23:03:58.964Z,7.55
2019-04-16T23:06:27.592Z,6.20
2019-04-16T23:09:01.995Z,5.62
2019-04-16T23:11:30.670Z,5.62
2019-04-16T23:14:02.505Z,6.17
2019-04-16T23:16:41.929Z,5.72
2019-04-16T23:19:09.614Z,5.72
2019-04-16T23:21:42.573Z,6.50
2019-04-16T23:24:12.681Z,6.72
2019-04-16T23:26:41.268Z,7.22
2019-04-16T23:29:12.224Z,5.87
2019-04-16T23:31:40.260Z,7.53
2019-04-16T23:34:08.871Z,6.45
2019-04-16T23:36:37.451Z,6.45
2019-04-16T23:39:07.926Z,6.15
2019-04-16T23:41:36.494Z,6.55
2019-04-16T23:44:25.930Z,7.60
2019-04-16T23:47:09.543Z,6.00
2019-04-16T23:49:42.635Z,8.00
2019-04-16T23:52:22.416Z,7.33
2019-04-16T23:55:09.830Z,6.05
2019-04-16T23:57:57.498Z,8.60
